モスクワ/シェレメーチエヴォ の空港の天気 - METARとTAF

シェレメーチエヴォ国際空港(モスクワ) ( UUEE / SVO ) - ロシア モスクワ
飛行場実況気象(Metar)
観測時間09/21 01:00 MSK (09/20 22:00 UTC)
風向・風速西 1m/s
視程10km以上
天気現象
なし
気温12℃
湿度94%
気圧1017hPa
METARUUEE 202200Z 26001MPS CAVOK 12/11 Q1017 R24L/CLRD62 NOSIG
過去の天気等 Google飛行場航空写真 Wunderground天気予報

過去48時間のMETAR

飛行場予報(TAF)
発表時間: 9/20 23:01 MSK (9/20 20:01 UTC)
予報対象時間: 21日0時 MSK ~ 22日0時 MSK
風向・風速西南西 2m/s
視程10km以上
全天の4割程度の雲 雲底高度 910m
21日1時 MSK ~ 21日8時 MSK に一時的に
視程3100m
天気現象もや
少しの雲 雲底高度 150m
21日9時 MSK ~ 21日18時 MSK に一時的に
風向・風速南南西 7m/s
TAF UUEE 202001Z 2021/2121 25002MPS 9999 SCT030 TX23/2112Z TN11/2103Z
TEMPO 2022/2105 3100 BR FEW005
TEMPO 2106/2115 21007MPS